Beatty, Nevada Weather observations

Data are for observation ending at time listed.
 Day   Time    Ave.   Ave.  Ave.  Vector   Max.   Stn.    Total    Solar   Ave.  
  of    of     Air    Rel.  Wind   Wind    Wind   Baro.  Precip.   Rad.    Soil  
Year   Day     Temp.  Hum.  Speed  Dir.    Gust   Pres.                    Temp. 
2014   (PST)    F      %     mph   deg.    mph     mb.     in.     W/m2     F   
------------------------------------------------------------------------------
 330   10:50   65.0    18    5.3    78     12.1   912.3    0.00     458    53.8
 330   11:00   65.1    18    4.9    77     10.4   912.1    0.00     464    53.8
 330   11:10   66.8    17    4.1    74      9.6   912.0    0.00     468    53.8
 330   11:20   66.8    17    4.7    79      8.6   911.9    0.00     471    53.8
 330   11:30   67.9    16    3.0    82      6.1   911.6    0.00     472    53.8
 330   11:40   68.5    16    3.7    75      6.9   911.4    0.00     473    53.8
 330   11:50   69.3    16    3.9    91      6.8   911.2    0.00     471    53.8
 330   12:00   69.4    15    4.1   104      6.9   911.0    0.00     468    53.8
 330   12:10   70.8    15    2.4    82      5.1   910.8    0.00     465    53.9
 330   12:20   71.9    14    2.2    82      5.3   910.6    0.00     460    53.9
 330   12:30   72.3    14    1.9    81      4.0   910.5    0.00     453    53.9
 330   12:40   72.9    14    1.8    91      3.7   910.3    0.00     445    53.9
 330   12:50   73.9    13    1.2    80      2.9   910.1    0.00     314    54.0
 330   13:00   74.0    13    1.8   114      4.1   910.0    0.00      73    54.0
 330   13:10   74.0    13    2.8   106      5.6   909.9    0.00     391    54.1
 330   13:20   74.3    14    2.2    83      4.2   909.7    0.00     378    54.1
 330   13:30   75.0    13    1.5   116      3.8   909.6    0.00     387    54.2
 330   13:40   74.8    13    3.8   195      6.4   909.5    0.00     367    54.3
 330   13:50   74.2    13    3.5   201      7.2   909.4    0.00     332    54.3
 330   14:00   74.1    13    4.7   204      7.7   909.3    0.00     320    54.4
 330   14:10   73.9    13    4.3   199      7.9   909.2    0.00     316    54.5
 330   14:20   73.8    13    4.1   192      6.9   909.2    0.00     297    54.6
 330   14:30   73.7    13    4.2   189      7.5   909.2    0.00     277    54.7
 330   14:40   73.8    13    3.6   183      8.0   909.2    0.00     257    54.8
 330   14:50   73.4    13    4.7   207      8.1   909.1    0.00     235    54.9
 330   15:00   73.1    13    4.6   208      7.5   909.1    0.00     213    55.0
 330   15:10   72.8    13    4.5   207      7.0   909.1    0.00     190    55.0
 330   15:20   73.8    13    3.8   205      6.8   909.1    0.00     167    55.1
 330   15:30   74.1    13    4.2   208      6.6   909.1    0.00      31    55.2
 330   15:40   73.6    13    4.2   211      6.3   909.1    0.00      18    55.3
 330   15:50   72.9    13    4.3   217      6.2   909.1    0.00      21    55.4
 330   16:00   72.4    13    3.4   222      5.9   909.0    0.00      67    55.5
 330   16:10   71.5    14    2.4   236      5.2   909.0    0.00      46    55.6
 330   16:20   69.6    15    1.7   267      3.7   909.0    0.00      13    55.7
 330   16:30   67.4    16    1.7   248      3.1   909.1    0.00       6    55.8
 330   16:40   66.2    17    1.5   258      3.1   909.3    0.00       3    55.9
 330   16:50   65.5    16    2.1   237      4.8   909.4    0.00       0    56.0
 330   17:00   64.5    17    1.9   219      4.2   909.6    0.00       0    56.1
 330   17:10   63.3    17    2.4   239      4.9   909.7    0.00       0    56.1
 330   17:20   62.1    19    1.2   247      2.6   909.8    0.00       0    56.2
 330   17:30   61.2    18    2.3   218      5.2   909.9    0.00       0    56.3
 330   17:40   60.2    20    0.3   273      1.8   910.0    0.00       0    56.4
 330   17:50   59.3    20    0.8   231      1.9   910.1    0.00       0    56.5
 330   18:00   58.7    21    0.7   229      1.5   910.2    0.00       0    56.6
 330   18:10   56.2    25    0.6   338      1.6   910.3    0.00       0    56.6
 330   18:20   54.5    24    0.2    64      1.1   910.4    0.00       0    56.7
 330   18:30   53.4    23    0.9    13      1.8   910.4    0.00       0    56.8
 330   18:40   52.5    24    1.1    46      2.3   910.5    0.00       0    56.8
 330   18:50   51.8    25    1.1    33      2.0   910.5    0.00       0    56.9
 330   19:00   51.4    24    1.2    37      3.4   910.6    0.00       0    56.9
 330   19:10   50.2    25    2.0    44      4.9   910.7    0.00       0    57.0
 330   19:20   47.9    27    2.9    60      5.3   910.7    0.00       0    57.0
 330   19:30   48.8    27    3.1    56      5.5   910.7    0.00       0    57.1
 330   19:40   49.7    26    2.0    54      4.8   910.7    0.00       0    57.1
 330   19:50   49.3    26    2.3    41      5.8   910.7    0.00       0    57.1
 330   20:00   49.5    26    2.8    15      5.1   910.7    0.00       0    57.2
 330   20:10   48.8    27    4.0    13      7.1   910.7    0.00       0    57.2
 330   20:20   50.2    26    4.2    17      8.3   910.8    0.00       0    57.3
 330   20:30   50.0    26    4.2   355      6.6   910.8    0.00       0    57.3
 330   20:40   49.4    27    5.9   353      9.3   910.9    0.00       0    57.3
 330   20:50   48.8    27    5.9   353      9.3   910.9    0.00       0    57.4
 330   21:00   47.9    28    7.6   356     10.1   910.9    0.00       0    57.4
 330   21:10   47.9    28    5.9   353      8.6   910.8    0.00       0    57.4
 330   21:20   46.8    29    5.6   359      8.3   910.8    0.00       0    57.5
 330   21:30   47.5    29    5.1   359      8.8   910.8    0.00       0    57.5
 330   21:40   47.5    29    4.2     5      9.3   910.8    0.00       0    57.5
 330   21:50   46.5    30    3.8    24      7.5   910.8    0.00       0    57.5
 330   22:00   45.1    31    2.7    48      6.5   910.9    0.00       0    57.5
 330   22:10   44.8    31    3.7    27      7.1   910.9    0.00       0    57.6
 330   22:20   46.5    30    3.9    25      7.5   910.9    0.00       0    57.6
 330   22:30   45.9    30    4.1    20      8.3   910.9    0.00       0    57.6
 330   22:40   43.6    32    3.7    27      7.9   910.9    0.00       0    57.6
 330   22:50   42.1    33    4.3    16      8.8   910.9    0.00       0    57.6
 330   23:00   42.5    33    6.1   357     10.0   910.9    0.00       0    57.6
 330   23:10   43.1    33    4.3    18      8.4   910.9    0.00       0    57.6
 330   23:20   45.6    31    4.4    23      7.5   910.8    0.00       0    57.5
 330   23:30   47.6    29    4.8     9      9.9   910.9    0.00       0    57.5
 330   23:40   44.7    32    6.8     2      9.8   910.9    0.00       0    57.5
 330   23:50   43.2    33    4.5    18      7.6   911.0    0.00       0    57.5
 331    0:00   43.8    33    5.7     6     10.2   910.9    0.00       0    57.5
 331    0:10   44.4    32    5.6    15     11.0   910.8    0.00       0    57.5
 331    0:20   43.1    33    5.1    18      9.5   910.7    0.00       0    57.5
 331    0:30   42.6    34    4.9    13     10.1   910.6    0.00       0    57.5
 331    0:40   42.7    35    6.0     9     10.4   910.6    0.00       0    57.4
 331    0:50   45.1    33    5.7    20      9.3   910.5    0.00       0    57.4
 331    1:00   46.0    32    5.0     8      8.8   910.4    0.00       0    57.4
 331    1:10   45.1    32    4.0    18      9.3   910.5    0.00       0    57.3
 331    1:20   44.2    33    4.5    18      9.5   910.4    0.00       0    57.3
 331    1:30   41.8    36    4.0    31      9.1   910.5    0.00       0    57.3
 331    1:40   41.4    37    6.1    17     10.2   910.5    0.00       0    57.3
 331    1:50   44.0    34    6.5    22     12.2   910.5    0.00       0    57.3
 331    2:00   44.6    33    7.0    18     12.3   910.6    0.00       0    57.2
 331    2:10   42.3    35    5.4    14      9.3   910.5    0.00       0    57.2
 331    2:20   43.1    35    6.3    17     12.3   910.2    0.00       0    57.2
 331    2:30   42.6    36    4.2    29     10.6   910.3    0.00       0    57.1
 331    2:40   41.8    37    5.1    28     11.7   910.3    0.00       0    57.1
 331    2:50   42.7    36    5.7    26      9.8   910.2    0.00       0    57.1
 331    3:00   43.1    36    4.8    27      9.4   910.1    0.00       0    57.0
 331    3:10   42.0    37    5.4    16      9.8   910.1    0.00       0    57.0
 331    3:20   42.3    36    5.3    13      9.0   910.1    0.00       0    56.9
 331    3:30   41.6    37    4.7     3      7.2   910.0    0.00       0    56.9
 331    3:40   41.1    37    6.0     4      9.8   909.8    0.00       0    56.9
 331    3:50   41.7    37    5.5     4      9.7   909.8    0.00       0    56.9
 331    4:00   42.3    36    4.7     8      8.6   909.8    0.00       0    56.8
 331    4:10   43.0    36    5.9     2      9.6   909.7    0.00       0    56.8
 331    4:20   42.8    36    4.4     8      9.9   909.8    0.00       0    56.7
 331    4:30   42.3    37    3.2    16      6.9   909.7    0.00       0    56.7
 331    4:40   41.8    38    4.9     1      8.9   909.7    0.00       0    56.7
 331    4:50   42.0    38    6.5     2     10.9   909.7    0.00       0    56.6
 331    5:00   41.9    38    4.1    17      7.6   909.7    0.00       0    56.6
 331    5:10   41.7    38    4.7    14     10.2   909.6    0.00       0    56.5
 331    5:20   42.2    37    7.6     2     11.7   909.6    0.00       0    56.5
 331    5:30   43.2    36    6.0     3     10.1   909.6    0.00       0    56.4
 331    5:40   43.0    37    7.0   358     10.6   909.7    0.00       0    56.4
 331    5:50   44.1    36    6.4    18     10.9   909.8    0.00       0    56.4
 331    6:00   46.0    33    6.4    24     11.3   909.8    0.00       0    56.3
 331    6:10   45.0    34    7.6   358     11.9   909.8    0.00       0    56.3
 331    6:20   43.7    36    7.8   360     11.7   910.0    0.00       0    56.3
 331    6:30   43.5    36    7.7   357     12.4   910.1    0.00       1    56.2
 331    6:40   43.6    36    7.5   355     11.6   910.0    0.00       6    56.2
 331    6:50   43.9    36    8.6   357     12.5   910.0    0.00       5    56.2
 331    7:00   43.0    37    8.0   359     12.3   910.1    0.00       8    56.1
 331    7:10   43.5    36    7.5     3     11.4   910.1    0.00      13    56.1
 331    7:20   44.0    36    5.9     3     10.0   910.1    0.00      20    56.0
 331    7:30   44.8    35    6.4     7     10.4   910.2    0.00      25    56.0
 331    7:40   44.6    36    7.1   358     10.7   910.2    0.00      30    56.0
 331    7:50   45.9    34    5.8     2      9.2   910.3    0.00      37    55.9
 331    8:00   46.1    34    7.1   360     11.6   910.3    0.00      48    55.9
 331    8:10   45.7    34    7.8   356     11.2   910.2    0.00      55    55.8
 331    8:20   45.8    34    7.7   358     11.6   910.3    0.00      60    55.8
 331    8:30   45.7    35    7.1     1     12.6   910.2    0.00      66    55.8
 331    8:40   46.5    34    5.9    11     11.5   910.2    0.00      73    55.7
 331    8:50   47.4    33    5.7    28     10.5   910.3    0.00      83    55.7
 331    9:00   47.8    33    4.4    29      8.6   910.3    0.00      95    55.6
 331    9:10   48.3    32    5.5    22      9.3   910.2    0.00     101    55.6
 331    9:20   48.8    32    5.7    25     11.0   910.1    0.00     104    55.6
 331    9:30   49.4    31    5.0    26      9.3   910.1    0.00     112    55.6
 331    9:40   49.9    31    4.5    16      9.6   910.1    0.00     120    55.5
 331    9:50   50.3    31    5.1     4     10.1   910.0    0.00     129    55.5
 331   10:00   50.8    30    6.8   359     10.3   910.0    0.00     138    55.5
 331   10:10   51.3    30    7.7   359     10.4   909.9    0.00     148    55.4
 331   10:20   51.6    30    7.5   359     10.8   909.7    0.00     155    55.4
 331   10:30   52.4    29    5.9   357      9.7   909.7    0.00     159    55.3
 331   10:40   52.6    29    6.3   357      9.6   909.5    0.00     165    55.3

Return to Beatty, Nevada graphs page.


Western Regional Climate Center,wrcc@dri.edu